sensor_id;sensor_type;location;lat;lon;timestamp;P1;durP1;ratioP1;P2;durP2;ratioP2
70073;SDS011;57445;51.058;3.698;2023-04-06T00:01:04;22.85;;;13.70;;
70073;SDS011;57445;51.058;3.698;2023-04-06T00:03:32;22.00;;;13.07;;
70073;SDS011;57445;51.058;3.698;2023-04-06T00:06:05;23.02;;;13.27;;
70073;SDS011;57445;51.058;3.698;2023-04-06T00:08:38;24.50;;;13.57;;
70073;SDS011;57445;51.058;3.698;2023-04-06T00:11:07;22.42;;;13.65;;
70073;SDS011;57445;51.058;3.698;2023-04-06T00:13:39;23.15;;;13.95;;
70073;SDS011;57445;51.058;3.698;2023-04-06T00:16:11;22.92;;;13.45;;
70073;SDS011;57445;51.058;3.698;2023-04-06T00:18:39;26.05;;;15.02;;
70073;SDS011;57445;51.058;3.698;2023-04-06T00:21:10;21.05;;;13.50;;
70073;SDS011;57445;51.058;3.698;2023-04-06T00:23:44;23.80;;;14.70;;
70073;SDS011;57445;51.058;3.698;2023-04-06T00:26:16;24.70;;;14.57;;
70073;SDS011;57445;51.058;3.698;2023-04-06T00:28:45;22.88;;;15.10;;
70073;SDS011;57445;51.058;3.698;2023-04-06T00:31:13;27.55;;;15.68;;
70073;SDS011;57445;51.058;3.698;2023-04-06T00:33:45;28.63;;;14.85;;
70073;SDS011;57445;51.058;3.698;2023-04-06T00:36:19;25.90;;;15.30;;
70073;SDS011;57445;51.058;3.698;2023-04-06T00:38:52;24.83;;;14.38;;
70073;SDS011;57445;51.058;3.698;2023-04-06T00:41:20;24.55;;;14.88;;
70073;SDS011;57445;51.058;3.698;2023-04-06T00:43:47;25.85;;;15.07;;
70073;SDS011;57445;51.058;3.698;2023-04-06T00:46:15;24.55;;;16.55;;
70073;SDS011;57445;51.058;3.698;2023-04-06T00:48:43;26.90;;;15.07;;
70073;SDS011;57445;51.058;3.698;2023-04-06T00:51:11;22.65;;;14.55;;
70073;SDS011;57445;51.058;3.698;2023-04-06T00:53:45;25.73;;;15.23;;
70073;SDS011;57445;51.058;3.698;2023-04-06T00:56:13;27.48;;;16.42;;
70073;SDS011;57445;51.058;3.698;2023-04-06T00:58:48;27.27;;;15.90;;
70073;SDS011;57445;51.058;3.698;2023-04-06T01:03:50;26.35;;;16.63;;
70073;SDS011;57445;51.058;3.698;2023-04-06T01:06:23;28.63;;;15.95;;
70073;SDS011;57445;51.058;3.698;2023-04-06T01:08:52;27.50;;;16.52;;
70073;SDS011;57445;51.058;3.698;2023-04-06T01:11:20;27.88;;;17.52;;
70073;SDS011;57445;51.058;3.698;2023-04-06T01:13:48;27.17;;;17.48;;
70073;SDS011;57445;51.058;3.698;2023-04-06T01:16:16;27.88;;;17.73;;
70073;SDS011;57445;51.058;3.698;2023-04-06T01:18:44;28.40;;;17.30;;
70073;SDS011;57445;51.058;3.698;2023-04-06T01:21:16;36.45;;;19.10;;
70073;SDS011;57445;51.058;3.698;2023-04-06T01:23:46;30.85;;;18.88;;
70073;SDS011;57445;51.058;3.698;2023-04-06T01:26:17;31.33;;;18.83;;
70073;SDS011;57445;51.058;3.698;2023-04-06T01:28:45;28.75;;;19.00;;
70073;SDS011;57445;51.058;3.698;2023-04-06T01:31:14;33.95;;;18.83;;
70073;SDS011;57445;51.058;3.698;2023-04-06T01:33:41;31.65;;;20.08;;
70073;SDS011;57445;51.058;3.698;2023-04-06T01:36:14;31.30;;;19.98;;
70073;SDS011;57445;51.058;3.698;2023-04-06T01:38:49;31.70;;;19.80;;
70073;SDS011;57445;51.058;3.698;2023-04-06T01:41:27;31.98;;;20.60;;
70073;SDS011;57445;51.058;3.698;2023-04-06T01:43:55;32.17;;;20.88;;
70073;SDS011;57445;51.058;3.698;2023-04-06T01:46:24;35.95;;;20.98;;
70073;SDS011;57445;51.058;3.698;2023-04-06T01:48:52;35.40;;;21.05;;
70073;SDS011;57445;51.058;3.698;2023-04-06T01:51:21;33.78;;;20.48;;
70073;SDS011;57445;51.058;3.698;2023-04-06T01:53:51;34.40;;;21.00;;
70073;SDS011;57445;51.058;3.698;2023-04-06T01:56:20;34.38;;;22.25;;
70073;SDS011;57445;51.058;3.698;2023-04-06T01:58:52;34.25;;;21.48;;
70073;SDS011;57445;51.058;3.698;2023-04-06T02:01:20;34.50;;;21.50;;
70073;SDS011;57445;51.058;3.698;2023-04-06T02:03:52;34.92;;;21.13;;
70073;SDS011;57445;51.058;3.698;2023-04-06T02:06:20;33.38;;;21.58;;
70073;SDS011;57445;51.058;3.698;2023-04-06T02:08:48;36.20;;;22.02;;
70073;SDS011;57445;51.058;3.698;2023-04-06T02:11:18;34.47;;;22.05;;
70073;SDS011;57445;51.058;3.698;2023-04-06T02:13:46;34.25;;;23.08;;
70073;SDS011;57445;51.058;3.698;2023-04-06T02:16:13;40.30;;;23.50;;
70073;SDS011;57445;51.058;3.698;2023-04-06T02:18:44;36.10;;;23.98;;
70073;SDS011;57445;51.058;3.698;2023-04-06T02:21:16;34.97;;;23.23;;
70073;SDS011;57445;51.058;3.698;2023-04-06T02:23:50;34.47;;;22.65;;
70073;SDS011;57445;51.058;3.698;2023-04-06T02:26:20;36.42;;;23.48;;
70073;SDS011;57445;51.058;3.698;2023-04-06T02:28:52;37.55;;;24.15;;
70073;SDS011;57445;51.058;3.698;2023-04-06T02:31:20;41.13;;;24.25;;
70073;SDS011;57445;51.058;3.698;2023-04-06T02:33:48;37.13;;;24.63;;
70073;SDS011;57445;51.058;3.698;2023-04-06T02:36:16;39.55;;;24.80;;
70073;SDS011;57445;51.058;3.698;2023-04-06T02:38:44;39.15;;;24.52;;
70073;SDS011;57445;51.058;3.698;2023-04-06T02:41:12;38.22;;;23.95;;
70073;SDS011;57445;51.058;3.698;2023-04-06T02:43:41;37.30;;;23.70;;
70073;SDS011;57445;51.058;3.698;2023-04-06T02:46:14;33.47;;;22.65;;
70073;SDS011;57445;51.058;3.698;2023-04-06T02:48:46;39.58;;;25.20;;
70073;SDS011;57445;51.058;3.698;2023-04-06T02:51:14;39.95;;;25.00;;
70073;SDS011;57445;51.058;3.698;2023-04-06T02:53:46;37.45;;;24.88;;
70073;SDS011;57445;51.058;3.698;2023-04-06T02:56:19;40.00;;;24.95;;
70073;SDS011;57445;51.058;3.698;2023-04-06T02:58:53;40.22;;;25.40;;
70073;SDS011;57445;51.058;3.698;2023-04-06T03:01:21;41.45;;;25.80;;
70073;SDS011;57445;51.058;3.698;2023-04-06T03:03:51;40.53;;;25.48;;
70073;SDS011;57445;51.058;3.698;2023-04-06T03:06:19;41.33;;;25.95;;
70073;SDS011;57445;51.058;3.698;2023-04-06T03:08:46;44.05;;;27.60;;
70073;SDS011;57445;51.058;3.698;2023-04-06T03:11:14;44.97;;;26.73;;
70073;SDS011;57445;51.058;3.698;2023-04-06T03:13:46;45.60;;;25.75;;
70073;SDS011;57445;51.058;3.698;2023-04-06T03:16:16;45.50;;;28.00;;
70073;SDS011;57445;51.058;3.698;2023-04-06T03:18:43;41.20;;;27.10;;
70073;SDS011;57445;51.058;3.698;2023-04-06T03:21:13;42.58;;;27.00;;
70073;SDS011;57445;51.058;3.698;2023-04-06T03:23:46;41.50;;;26.63;;
70073;SDS011;57445;51.058;3.698;2023-04-06T03:26:16;42.92;;;26.42;;
70073;SDS011;57445;51.058;3.698;2023-04-06T03:28:44;40.83;;;26.40;;
70073;SDS011;57445;51.058;3.698;2023-04-06T03:31:18;44.38;;;25.92;;
70073;SDS011;57445;51.058;3.698;2023-04-06T03:33:50;44.35;;;26.60;;
70073;SDS011;57445;51.058;3.698;2023-04-06T03:36:18;44.13;;;26.65;;
70073;SDS011;57445;51.058;3.698;2023-04-06T03:38:51;45.45;;;27.40;;
70073;SDS011;57445;51.058;3.698;2023-04-06T03:41:20;41.72;;;27.05;;
70073;SDS011;57445;51.058;3.698;2023-04-06T03:43:52;45.75;;;27.77;;
70073;SDS011;57445;51.058;3.698;2023-04-06T03:46:26;42.25;;;26.20;;
70073;SDS011;57445;51.058;3.698;2023-04-06T03:48:53;41.20;;;25.88;;
70073;SDS011;57445;51.058;3.698;2023-04-06T03:51:26;44.17;;;27.25;;
70073;SDS011;57445;51.058;3.698;2023-04-06T03:53:54;41.72;;;24.75;;
70073;SDS011;57445;51.058;3.698;2023-04-06T03:56:22;43.53;;;25.85;;
70073;SDS011;57445;51.058;3.698;2023-04-06T03:58:54;40.92;;;25.73;;
70073;SDS011;57445;51.058;3.698;2023-04-06T04:01:28;47.50;;;26.88;;
70073;SDS011;57445;51.058;3.698;2023-04-06T04:04:00;38.95;;;25.25;;
70073;SDS011;57445;51.058;3.698;2023-04-06T04:06:33;42.97;;;25.73;;
70073;SDS011;57445;51.058;3.698;2023-04-06T04:09:06;41.78;;;25.05;;
70073;SDS011;57445;51.058;3.698;2023-04-06T04:11:34;41.63;;;25.15;;
70073;SDS011;57445;51.058;3.698;2023-04-06T04:14:06;43.20;;;25.73;;
70073;SDS011;57445;51.058;3.698;2023-04-06T04:16:36;41.60;;;25.77;;
70073;SDS011;57445;51.058;3.698;2023-04-06T04:19:05;42.08;;;25.08;;
70073;SDS011;57445;51.058;3.698;2023-04-06T04:21:42;40.30;;;24.88;;
70073;SDS011;57445;51.058;3.698;2023-04-06T04:24:11;42.17;;;24.55;;
70073;SDS011;57445;51.058;3.698;2023-04-06T04:26:39;39.40;;;23.90;;
70073;SDS011;57445;51.058;3.698;2023-04-06T04:29:11;41.08;;;25.20;;
70073;SDS011;57445;51.058;3.698;2023-04-06T04:31:41;42.40;;;26.05;;
70073;SDS011;57445;51.058;3.698;2023-04-06T04:34:13;42.75;;;24.92;;
70073;SDS011;57445;51.058;3.698;2023-04-06T04:36:42;40.38;;;24.23;;
70073;SDS011;57445;51.058;3.698;2023-04-06T04:39:09;39.97;;;25.30;;
70073;SDS011;57445;51.058;3.698;2023-04-06T04:41:42;40.50;;;24.70;;
70073;SDS011;57445;51.058;3.698;2023-04-06T04:44:14;40.72;;;23.92;;
70073;SDS011;57445;51.058;3.698;2023-04-06T04:46:43;35.50;;;23.90;;
70073;SDS011;57445;51.058;3.698;2023-04-06T04:49:12;36.97;;;23.50;;
70073;SDS011;57445;51.058;3.698;2023-04-06T04:51:44;36.85;;;23.63;;
70073;SDS011;57445;51.058;3.698;2023-04-06T04:54:16;36.22;;;23.67;;
70073;SDS011;57445;51.058;3.698;2023-04-06T04:56:49;39.53;;;24.33;;
70073;SDS011;57445;51.058;3.698;2023-04-06T04:59:21;37.67;;;24.50;;
70073;SDS011;57445;51.058;3.698;2023-04-06T05:01:51;39.22;;;24.52;;
70073;SDS011;57445;51.058;3.698;2023-04-06T05:04:19;38.55;;;23.77;;
70073;SDS011;57445;51.058;3.698;2023-04-06T05:07:01;39.88;;;23.75;;
70073;SDS011;57445;51.058;3.698;2023-04-06T05:09:34;35.80;;;22.48;;
70073;SDS011;57445;51.058;3.698;2023-04-06T05:12:02;38.83;;;24.50;;
70073;SDS011;57445;51.058;3.698;2023-04-06T05:14:30;38.13;;;23.55;;
70073;SDS011;57445;51.058;3.698;2023-04-06T05:16:59;40.42;;;24.95;;
70073;SDS011;57445;51.058;3.698;2023-04-06T05:19:27;39.92;;;24.35;;
70073;SDS011;57445;51.058;3.698;2023-04-06T05:21:55;37.70;;;24.17;;
70073;SDS011;57445;51.058;3.698;2023-04-06T05:24:27;37.97;;;24.23;;
70073;SDS011;57445;51.058;3.698;2023-04-06T05:26:55;39.53;;;24.13;;
70073;SDS011;57445;51.058;3.698;2023-04-06T05:29:23;37.10;;;23.98;;
70073;SDS011;57445;51.058;3.698;2023-04-06T05:31:51;36.60;;;23.73;;
70073;SDS011;57445;51.058;3.698;2023-04-06T05:34:25;36.70;;;23.77;;
70073;SDS011;57445;51.058;3.698;2023-04-06T05:36:52;37.75;;;24.67;;
70073;SDS011;57445;51.058;3.698;2023-04-06T05:39:20;35.95;;;24.25;;
70073;SDS011;57445;51.058;3.698;2023-04-06T05:41:52;35.22;;;23.98;;
70073;SDS011;57445;51.058;3.698;2023-04-06T05:44:25;37.35;;;23.98;;
70073;SDS011;57445;51.058;3.698;2023-04-06T05:46:53;37.63;;;23.73;;
70073;SDS011;57445;51.058;3.698;2023-04-06T05:49:21;38.03;;;23.55;;
70073;SDS011;57445;51.058;3.698;2023-04-06T05:51:55;33.97;;;22.85;;
70073;SDS011;57445;51.058;3.698;2023-04-06T05:54:27;35.10;;;22.63;;
70073;SDS011;57445;51.058;3.698;2023-04-06T05:57:01;36.78;;;23.58;;
70073;SDS011;57445;51.058;3.698;2023-04-06T05:59:29;37.05;;;23.63;;
70073;SDS011;57445;51.058;3.698;2023-04-06T06:01:57;37.10;;;24.10;;
70073;SDS011;57445;51.058;3.698;2023-04-06T06:04:31;39.85;;;23.55;;
70073;SDS011;57445;51.058;3.698;2023-04-06T06:07:05;38.20;;;22.90;;
70073;SDS011;57445;51.058;3.698;2023-04-06T06:09:37;35.58;;;23.63;;
70073;SDS011;57445;51.058;3.698;2023-04-06T06:12:10;37.25;;;22.33;;
70073;SDS011;57445;51.058;3.698;2023-04-06T06:14:38;39.53;;;22.30;;
70073;SDS011;57445;51.058;3.698;2023-04-06T06:17:06;29.85;;;17.88;;
70073;SDS011;57445;51.058;3.698;2023-04-06T06:19:34;32.70;;;18.25;;
70073;SDS011;57445;51.058;3.698;2023-04-06T06:22:10;24.60;;;16.35;;
70073;SDS011;57445;51.058;3.698;2023-04-06T06:24:42;25.98;;;16.83;;
70073;SDS011;57445;51.058;3.698;2023-04-06T06:27:11;27.30;;;15.32;;
70073;SDS011;57445;51.058;3.698;2023-04-06T06:29:43;27.17;;;15.10;;
70073;SDS011;57445;51.058;3.698;2023-04-06T06:32:11;22.13;;;14.48;;
70073;SDS011;57445;51.058;3.698;2023-04-06T06:34:43;21.35;;;14.13;;
70073;SDS011;57445;51.058;3.698;2023-04-06T06:37:17;23.67;;;14.38;;
70073;SDS011;57445;51.058;3.698;2023-04-06T06:39:45;21.88;;;13.05;;
70073;SDS011;57445;51.058;3.698;2023-04-06T06:42:13;22.20;;;12.05;;
70073;SDS011;57445;51.058;3.698;2023-04-06T06:44:48;18.42;;;11.85;;
70073;SDS011;57445;51.058;3.698;2023-04-06T06:47:20;20.35;;;11.98;;
70073;SDS011;57445;51.058;3.698;2023-04-06T06:49:52;21.50;;;13.07;;
70073;SDS011;57445;51.058;3.698;2023-04-06T06:52:26;18.65;;;12.18;;
70073;SDS011;57445;51.058;3.698;2023-04-06T06:54:54;20.27;;;11.77;;
70073;SDS011;57445;51.058;3.698;2023-04-06T06:57:28;17.52;;;10.82;;
70073;SDS011;57445;51.058;3.698;2023-04-06T06:59:55;17.58;;;11.10;;
70073;SDS011;57445;51.058;3.698;2023-04-06T07:02:30;19.55;;;11.15;;
70073;SDS011;57445;51.058;3.698;2023-04-06T07:04:57;19.30;;;10.65;;
70073;SDS011;57445;51.058;3.698;2023-04-06T07:07:27;17.90;;;10.00;;
70073;SDS011;57445;51.058;3.698;2023-04-06T07:09:55;20.70;;;10.32;;
70073;SDS011;57445;51.058;3.698;2023-04-06T07:12:27;16.15;;;10.13;;
70073;SDS011;57445;51.058;3.698;2023-04-06T07:14:55;18.83;;;10.23;;
70073;SDS011;57445;51.058;3.698;2023-04-06T07:17:22;16.42;;;9.63;;
70073;SDS011;57445;51.058;3.698;2023-04-06T07:19:50;18.85;;;9.52;;
70073;SDS011;57445;51.058;3.698;2023-04-06T07:22:22;15.30;;;9.18;;
70073;SDS011;57445;51.058;3.698;2023-04-06T07:24:51;13.93;;;8.90;;
70073;SDS011;57445;51.058;3.698;2023-04-06T07:27:23;16.98;;;9.00;;
70073;SDS011;57445;51.058;3.698;2023-04-06T07:29:56;18.35;;;9.27;;
70073;SDS011;57445;51.058;3.698;2023-04-06T07:32:23;12.70;;;8.70;;
70073;SDS011;57445;51.058;3.698;2023-04-06T07:34:52;14.32;;;8.77;;
70073;SDS011;57445;51.058;3.698;2023-04-06T07:37:20;12.40;;;8.57;;
70073;SDS011;57445;51.058;3.698;2023-04-06T07:39:47;16.25;;;8.30;;
70073;SDS011;57445;51.058;3.698;2023-04-06T07:42:17;12.45;;;8.05;;
70073;SDS011;57445;51.058;3.698;2023-04-06T07:44:52;13.55;;;8.25;;
70073;SDS011;57445;51.058;3.698;2023-04-06T07:47:20;13.07;;;8.32;;
70073;SDS011;57445;51.058;3.698;2023-04-06T07:49:47;16.83;;;8.55;;
70073;SDS011;57445;51.058;3.698;2023-04-06T07:52:20;15.27;;;8.30;;
70073;SDS011;57445;51.058;3.698;2023-04-06T07:54:48;14.77;;;8.35;;
70073;SDS011;57445;51.058;3.698;2023-04-06T07:57:17;14.32;;;8.35;;
70073;SDS011;57445;51.058;3.698;2023-04-06T07:59:48;15.55;;;8.27;;
70073;SDS011;57445;51.058;3.698;2023-04-06T08:02:18;14.00;;;8.10;;
70073;SDS011;57445;51.058;3.698;2023-04-06T08:04:51;13.05;;;7.82;;
70073;SDS011;57445;51.058;3.698;2023-04-06T08:07:23;14.07;;;8.48;;
70073;SDS011;57445;51.058;3.698;2023-04-06T08:09:51;15.77;;;8.07;;
70073;SDS011;57445;51.058;3.698;2023-04-06T08:12:25;12.73;;;8.82;;
70073;SDS011;57445;51.058;3.698;2023-04-06T08:14:53;15.50;;;9.10;;
70073;SDS011;57445;51.058;3.698;2023-04-06T08:17:25;14.50;;;8.57;;
70073;SDS011;57445;51.058;3.698;2023-04-06T08:20:00;21.58;;;9.02;;
70073;SDS011;57445;51.058;3.698;2023-04-06T08:22:34;15.52;;;9.45;;
70073;SDS011;57445;51.058;3.698;2023-04-06T08:25:02;16.40;;;9.13;;
70073;SDS011;57445;51.058;3.698;2023-04-06T08:27:37;14.82;;;9.07;;
70073;SDS011;57445;51.058;3.698;2023-04-06T08:30:09;14.32;;;8.73;;
70073;SDS011;57445;51.058;3.698;2023-04-06T08:32:37;15.00;;;8.95;;
70073;SDS011;57445;51.058;3.698;2023-04-06T08:35:07;15.80;;;10.45;;
70073;SDS011;57445;51.058;3.698;2023-04-06T08:37:35;17.15;;;9.07;;
70073;SDS011;57445;51.058;3.698;2023-04-06T08:40:07;15.10;;;10.10;;
70073;SDS011;57445;51.058;3.698;2023-04-06T08:42:44;17.02;;;10.25;;
70073;SDS011;57445;51.058;3.698;2023-04-06T08:45:19;17.05;;;9.90;;
70073;SDS011;57445;51.058;3.698;2023-04-06T08:47:51;17.25;;;10.07;;
70073;SDS011;57445;51.058;3.698;2023-04-06T08:50:21;18.20;;;11.20;;
70073;SDS011;57445;51.058;3.698;2023-04-06T08:52:51;16.67;;;11.02;;
70073;SDS011;57445;51.058;3.698;2023-04-06T08:55:19;17.23;;;10.40;;
70073;SDS011;57445;51.058;3.698;2023-04-06T08:57:49;18.75;;;10.40;;
70073;SDS011;57445;51.058;3.698;2023-04-06T09:00:23;15.50;;;10.20;;
70073;SDS011;57445;51.058;3.698;2023-04-06T09:02:53;17.98;;;11.07;;
70073;SDS011;57445;51.058;3.698;2023-04-06T09:05:27;18.48;;;11.32;;
70073;SDS011;57445;51.058;3.698;2023-04-06T09:07:56;18.48;;;11.05;;
70073;SDS011;57445;51.058;3.698;2023-04-06T09:10:26;16.13;;;10.25;;
70073;SDS011;57445;51.058;3.698;2023-04-06T09:13:04;16.30;;;10.52;;
70073;SDS011;57445;51.058;3.698;2023-04-06T09:15:32;18.65;;;11.00;;
70073;SDS011;57445;51.058;3.698;2023-04-06T09:18:00;18.00;;;10.60;;
70073;SDS011;57445;51.058;3.698;2023-04-06T09:20:28;19.05;;;10.30;;
70073;SDS011;57445;51.058;3.698;2023-04-06T09:22:56;18.48;;;10.32;;
70073;SDS011;57445;51.058;3.698;2023-04-06T09:25:25;18.15;;;10.82;;
70073;SDS011;57445;51.058;3.698;2023-04-06T09:28:00;17.55;;;11.00;;
70073;SDS011;57445;51.058;3.698;2023-04-06T09:30:35;18.17;;;10.98;;
70073;SDS011;57445;51.058;3.698;2023-04-06T09:33:04;18.42;;;10.05;;
70073;SDS011;57445;51.058;3.698;2023-04-06T09:35:37;16.08;;;10.15;;
70073;SDS011;57445;51.058;3.698;2023-04-06T09:38:10;20.25;;;11.57;;
70073;SDS011;57445;51.058;3.698;2023-04-06T09:40:47;19.67;;;11.23;;
70073;SDS011;57445;51.058;3.698;2023-04-06T09:43:23;17.70;;;10.97;;
70073;SDS011;57445;51.058;3.698;2023-04-06T09:45:53;17.90;;;11.68;;
70073;SDS011;57445;51.058;3.698;2023-04-06T09:48:22;25.52;;;19.10;;
70073;SDS011;57445;51.058;3.698;2023-04-06T09:50:53;19.15;;;12.13;;
70073;SDS011;57445;51.058;3.698;2023-04-06T09:53:29;17.20;;;11.65;;
70073;SDS011;57445;51.058;3.698;2023-04-06T09:55:58;17.90;;;11.32;;
70073;SDS011;57445;51.058;3.698;2023-04-06T09:58:32;18.10;;;12.10;;
70073;SDS011;57445;51.058;3.698;2023-04-06T10:01:10;19.02;;;12.18;;
70073;SDS011;57445;51.058;3.698;2023-04-06T10:03:44;20.63;;;11.77;;
70073;SDS011;57445;51.058;3.698;2023-04-06T10:06:18;20.02;;;12.27;;
70073;SDS011;57445;51.058;3.698;2023-04-06T10:08:51;18.25;;;11.85;;
70073;SDS011;57445;51.058;3.698;2023-04-06T10:11:21;18.73;;;12.13;;
70073;SDS011;57445;51.058;3.698;2023-04-06T10:13:54;17.33;;;11.90;;
70073;SDS011;57445;51.058;3.698;2023-04-06T10:16:24;20.20;;;12.57;;
70073;SDS011;57445;51.058;3.698;2023-04-06T10:18:59;19.60;;;11.77;;
70073;SDS011;57445;51.058;3.698;2023-04-06T10:21:44;18.48;;;11.98;;
70073;SDS011;57445;51.058;3.698;2023-04-06T10:24:15;15.82;;;11.60;;
70073;SDS011;57445;51.058;3.698;2023-04-06T10:26:43;16.30;;;10.55;;
70073;SDS011;57445;51.058;3.698;2023-04-06T10:29:24;16.58;;;11.32;;
70073;SDS011;57445;51.058;3.698;2023-04-06T10:31:54;18.45;;;11.07;;
70073;SDS011;57445;51.058;3.698;2023-04-06T10:34:22;18.33;;;10.80;;
70073;SDS011;57445;51.058;3.698;2023-04-06T10:37:10;16.23;;;11.27;;
70073;SDS011;57445;51.058;3.698;2023-04-06T10:39:45;16.80;;;10.52;;
70073;SDS011;57445;51.058;3.698;2023-04-06T10:42:18;16.13;;;11.23;;
70073;SDS011;57445;51.058;3.698;2023-04-06T10:44:50;15.07;;;11.13;;
70073;SDS011;57445;51.058;3.698;2023-04-06T10:47:19;18.00;;;11.60;;
70073;SDS011;57445;51.058;3.698;2023-04-06T10:49:47;17.02;;;11.18;;
70073;SDS011;57445;51.058;3.698;2023-04-06T10:52:20;16.15;;;10.90;;
70073;SDS011;57445;51.058;3.698;2023-04-06T10:54:47;98.72;;;16.83;;
70073;SDS011;57445;51.058;3.698;2023-04-06T10:57:15;101.13;;;16.42;;
70073;SDS011;57445;51.058;3.698;2023-04-06T10:59:47;35.92;;;10.85;;
70073;SDS011;57445;51.058;3.698;2023-04-06T11:02:21;14.25;;;9.13;;
70073;SDS011;57445;51.058;3.698;2023-04-06T11:04:58;16.08;;;9.98;;
70073;SDS011;57445;51.058;3.698;2023-04-06T11:07:26;13.30;;;9.10;;
70073;SDS011;57445;51.058;3.698;2023-04-06T11:10:00;15.55;;;10.35;;
70073;SDS011;57445;51.058;3.698;2023-04-06T11:12:32;16.80;;;10.70;;
70073;SDS011;57445;51.058;3.698;2023-04-06T11:15:05;14.93;;;10.00;;
70073;SDS011;57445;51.058;3.698;2023-04-06T11:17:36;15.15;;;10.23;;
70073;SDS011;57445;51.058;3.698;2023-04-06T11:20:09;13.82;;;9.68;;
70073;SDS011;57445;51.058;3.698;2023-04-06T11:22:47;15.05;;;9.70;;
70073;SDS011;57445;51.058;3.698;2023-04-06T11:25:16;14.30;;;9.40;;
70073;SDS011;57445;51.058;3.698;2023-04-06T11:27:45;13.55;;;9.10;;
70073;SDS011;57445;51.058;3.698;2023-04-06T11:30:17;13.95;;;9.48;;
70073;SDS011;57445;51.058;3.698;2023-04-06T11:32:51;12.63;;;8.18;;
70073;SDS011;57445;51.058;3.698;2023-04-06T11:35:20;13.65;;;8.27;;
70073;SDS011;57445;51.058;3.698;2023-04-06T11:37:49;13.13;;;8.27;;
70073;SDS011;57445;51.058;3.698;2023-04-06T11:40:21;12.23;;;8.05;;
70073;SDS011;57445;51.058;3.698;2023-04-06T11:42:55;12.00;;;7.50;;
70073;SDS011;57445;51.058;3.698;2023-04-06T11:45:23;11.95;;;7.68;;
70073;SDS011;57445;51.058;3.698;2023-04-06T11:47:58;12.32;;;7.85;;
70073;SDS011;57445;51.058;3.698;2023-04-06T11:50:31;12.27;;;8.20;;
70073;SDS011;57445;51.058;3.698;2023-04-06T11:53:05;10.27;;;7.85;;
70073;SDS011;57445;51.058;3.698;2023-04-06T11:55:38;12.98;;;8.60;;
70073;SDS011;57445;51.058;3.698;2023-04-06T11:58:06;13.18;;;8.80;;
70073;SDS011;57445;51.058;3.698;2023-04-06T12:00:35;13.23;;;8.73;;
70073;SDS011;57445;51.058;3.698;2023-04-06T12:03:04;12.05;;;8.90;;
70073;SDS011;57445;51.058;3.698;2023-04-06T12:05:33;12.52;;;8.88;;
70073;SDS011;57445;51.058;3.698;2023-04-06T12:08:06;15.25;;;9.77;;
70073;SDS011;57445;51.058;3.698;2023-04-06T12:10:34;14.18;;;10.15;;
70073;SDS011;57445;51.058;3.698;2023-04-06T12:13:02;15.80;;;9.75;;
70073;SDS011;57445;51.058;3.698;2023-04-06T12:15:35;15.75;;;10.48;;
70073;SDS011;57445;51.058;3.698;2023-04-06T12:18:03;18.30;;;11.98;;
70073;SDS011;57445;51.058;3.698;2023-04-06T12:20:35;13.70;;;10.40;;
70073;SDS011;57445;51.058;3.698;2023-04-06T12:23:07;19.05;;;11.75;;
70073;SDS011;57445;51.058;3.698;2023-04-06T12:25:34;18.45;;;12.30;;
70073;SDS011;57445;51.058;3.698;2023-04-06T12:28:03;17.02;;;12.57;;
70073;SDS011;57445;51.058;3.698;2023-04-06T12:30:36;17.90;;;13.05;;
70073;SDS011;57445;51.058;3.698;2023-04-06T12:33:08;16.80;;;12.60;;
70073;SDS011;57445;51.058;3.698;2023-04-06T12:38:11;18.67;;;13.00;;
70073;SDS011;57445;51.058;3.698;2023-04-06T12:40:39;17.02;;;12.20;;
70073;SDS011;57445;51.058;3.698;2023-04-06T12:43:07;17.63;;;12.57;;
70073;SDS011;57445;51.058;3.698;2023-04-06T12:45:35;16.70;;;12.35;;
70073;SDS011;57445;51.058;3.698;2023-04-06T12:48:02;17.70;;;12.90;;
70073;SDS011;57445;51.058;3.698;2023-04-06T12:50:31;17.60;;;13.02;;
70073;SDS011;57445;51.058;3.698;2023-04-06T12:52:59;18.05;;;12.90;;
70073;SDS011;57445;51.058;3.698;2023-04-06T12:55:31;20.13;;;13.52;;
70073;SDS011;57445;51.058;3.698;2023-04-06T12:58:05;18.48;;;12.77;;
70073;SDS011;57445;51.058;3.698;2023-04-06T13:00:33;17.00;;;13.07;;
70073;SDS011;57445;51.058;3.698;2023-04-06T13:03:01;20.13;;;13.27;;
70073;SDS011;57445;51.058;3.698;2023-04-06T13:05:29;19.77;;;13.65;;
70073;SDS011;57445;51.058;3.698;2023-04-06T13:07:58;20.98;;;13.00;;
70073;SDS011;57445;51.058;3.698;2023-04-06T13:10:26;19.92;;;13.18;;
70073;SDS011;57445;51.058;3.698;2023-04-06T13:12:59;16.83;;;12.95;;
70073;SDS011;57445;51.058;3.698;2023-04-06T13:15:27;18.98;;;13.35;;
70073;SDS011;57445;51.058;3.698;2023-04-06T13:17:55;18.77;;;13.43;;
70073;SDS011;57445;51.058;3.698;2023-04-06T13:20:27;19.27;;;14.13;;
70073;SDS011;57445;51.058;3.698;2023-04-06T13:23:01;18.58;;;13.65;;
70073;SDS011;57445;51.058;3.698;2023-04-06T13:25:37;17.90;;;13.05;;
70073;SDS011;57445;51.058;3.698;2023-04-06T13:28:04;19.23;;;13.65;;
70073;SDS011;57445;51.058;3.698;2023-04-06T13:30:32;18.48;;;13.55;;
70073;SDS011;57445;51.058;3.698;2023-04-06T13:33:05;21.17;;;13.50;;
70073;SDS011;57445;51.058;3.698;2023-04-06T13:35:37;16.92;;;12.20;;
70073;SDS011;57445;51.058;3.698;2023-04-06T13:38:11;19.58;;;13.20;;
70073;SDS011;57445;51.058;3.698;2023-04-06T13:40:43;17.17;;;12.13;;
70073;SDS011;57445;51.058;3.698;2023-04-06T13:43:16;19.33;;;13.18;;
70073;SDS011;57445;51.058;3.698;2023-04-06T13:45:48;16.80;;;11.50;;
70073;SDS011;57445;51.058;3.698;2023-04-06T13:48:20;17.88;;;12.70;;
70073;SDS011;57445;51.058;3.698;2023-04-06T13:50:52;18.50;;;12.55;;
70073;SDS011;57445;51.058;3.698;2023-04-06T13:53:27;19.60;;;12.43;;
70073;SDS011;57445;51.058;3.698;2023-04-06T13:55:54;16.08;;;11.38;;
70073;SDS011;57445;51.058;3.698;2023-04-06T13:58:27;16.92;;;10.68;;
70073;SDS011;57445;51.058;3.698;2023-04-06T14:01:01;16.20;;;11.20;;
70073;SDS011;57445;51.058;3.698;2023-04-06T14:03:30;15.70;;;10.57;;
70073;SDS011;57445;51.058;3.698;2023-04-06T14:06:09;15.15;;;11.48;;
70073;SDS011;57445;51.058;3.698;2023-04-06T14:08:40;19.17;;;11.73;;
70073;SDS011;57445;51.058;3.698;2023-04-06T14:11:12;15.88;;;11.57;;
70073;SDS011;57445;51.058;3.698;2023-04-06T14:13:42;17.98;;;12.18;;
70073;SDS011;57445;51.058;3.698;2023-04-06T14:16:14;18.10;;;11.30;;
70073;SDS011;57445;51.058;3.698;2023-04-06T14:18:45;17.25;;;11.05;;
70073;SDS011;57445;51.058;3.698;2023-04-06T14:21:17;18.38;;;12.02;;
70073;SDS011;57445;51.058;3.698;2023-04-06T14:23:51;18.08;;;12.23;;
70073;SDS011;57445;51.058;3.698;2023-04-06T14:26:19;15.52;;;10.93;;
70073;SDS011;57445;51.058;3.698;2023-04-06T14:28:52;20.58;;;12.20;;
70073;SDS011;57445;51.058;3.698;2023-04-06T14:31:25;15.23;;;10.55;;
70073;SDS011;57445;51.058;3.698;2023-04-06T14:33:53;17.63;;;10.90;;
70073;SDS011;57445;51.058;3.698;2023-04-06T14:36:21;18.25;;;11.60;;
70073;SDS011;57445;51.058;3.698;2023-04-06T14:38:56;18.15;;;10.40;;
70073;SDS011;57445;51.058;3.698;2023-04-06T14:41:32;17.00;;;10.27;;
70073;SDS011;57445;51.058;3.698;2023-04-06T14:44:06;26.05;;;10.65;;
70073;SDS011;57445;51.058;3.698;2023-04-06T14:46:42;17.20;;;10.60;;
70073;SDS011;57445;51.058;3.698;2023-04-06T14:49:14;17.70;;;10.65;;